Lance Creek, WY

11:26 AM MDT on October 01, 2014 (GMT -0600)
Converse County | Change Station
CLOSE
Current Station
Airport
Location: Douglas,
Elevation: 4928 ft
Nearby Weather Stations

Elev 4928 ft 42.80 °N, 105.38 °W | Updated 33 minutes ago

Overcast
Overcast
46 °F
Feels Like 40 °F
N
15
Wind Variable Wind from North

Today
High -- | Low -- °F
--% Chance of Precip.
Yesterday
High -- | Low -- °F
Precip. -- in
6:55 AM 6:39 PM
Waxing Crescent, 49% visible
Pressure 29.91 in
Visibility 10.0 miles
Clouds Scattered Clouds 1700 ft
Mostly Cloudy 2400 ft
Overcast 4200 ft
Windchill 40 °F
Dew Point 42 °F
Humidity 86%
Rainfall 0.17 in
Snow Depth 0 in , 0 in , 0 in
UV 1 out of 12
Pollen 2.80 out of 12
Air Quality Not available.
Flu Activity Not available.
METAR KDGW 011653Z AUTO 35013KT 10SM SCT017 BKN024 OVC042 08/06 A2996 RMK AO2 RAE48 SLP129 P0003 T00780056

More Conditions Fewer Conditions

Pressure 29.91 in
Visibility 10.0 miles
Clouds Scattered Clouds 1700 ft
Mostly Cloudy 2400 ft
Overcast 4200 ft
Windchill 40 °F
Dew Point 42 °F
Humidity 86%
Rainfall 0.17 in
Snow Depth 0 in , 0 in , 0 in
UV 1 out of 12
Pollen 2.80 out of 12
Air Quality Not available.
Flu Activity Not available.
METAR KDGW 011653Z AUTO 35013KT 10SM SCT017 BKN024 OVC042 08/06 A2996 RMK AO2 RAE48 SLP129 P0003 T00780056

More Conditions Fewer Conditions

10-Day Weather Forecast

Almanac

Astronomy

Oct. 01, 2014 Rise Set
Actual Time 6:55 AM MDT 6:39 PM MDT
Civil Twilight 6:27 AM MDT 7:07 PM MDT
Nautical Twilight 5:54 AM MDT 7:40 PM MDT
Astronomical Twilight 5:20 AM MDT 8:14 PM MDT
Moon 2:05 PM MDT No Moon Set
Length of Visible Light 12h 40m
Length of Day
11h 43m
Tomorrow will be 2m 54s shorter.
Waxing Crescent, 49% of the Moon is Illuminated
Today
Waxing Crescent
Oct 1
First Quarter
Oct 8
Full
Oct 15
Last Quarter
Oct 23
New

Today's Extremes

State Highs State Lows

Community

WunderPhotos

Upload Photos

1,757,987 photos uploaded!

WunderBlogs® & News

By Dr. Jeff Masters
Director of Meteorology, Weather Underground
By Kari Strenfel
Meteorologist, Weather Underground
By Christopher C. Burt
Weather Historian, Weather Underground
October 1, 2014
October 1, 2014
October 1, 2014

Nearby

Snow Depth

Station Depth Elevation
Dome Lake 0 in 8880 ft
Whiskey Park 0 in 8950 ft
Little Warm 0 in 9370 ft
Kirwin 0 in 9550 ft
Shell Creek 0 in 9580 ft

Earthquake Activity

City Distance Mag. Time & Date
No recent earthquake activity has been reported nearby.
Minimum magnitude displayed is 2.5.

Coastal Water Temperatures

Place Temperature
No Stations Reporting

Nearby Weather Stations